sensor_id;sensor_type;location;lat;lon;timestamp;temperature;humidity
6114;DHT22;3087;48.392;10.836;2023-09-19T00:01:15;17.50;99.90
6114;DHT22;3087;48.392;10.836;2023-09-19T00:03:40;17.60;99.90
6114;DHT22;3087;48.392;10.836;2023-09-19T00:06:07;17.60;99.90
6114;DHT22;3087;48.392;10.836;2023-09-19T00:08:34;17.50;99.90
6114;DHT22;3087;48.392;10.836;2023-09-19T00:10:59;17.40;99.90
6114;DHT22;3087;48.392;10.836;2023-09-19T00:13:29;17.30;99.90
6114;DHT22;3087;48.392;10.836;2023-09-19T00:15:56;17.30;99.90
6114;DHT22;3087;48.392;10.836;2023-09-19T00:18:24;17.30;99.90
6114;DHT22;3087;48.392;10.836;2023-09-19T00:20:57;17.20;99.90
6114;DHT22;3087;48.392;10.836;2023-09-19T00:23:23;17.20;99.90
6114;DHT22;3087;48.392;10.836;2023-09-19T00:25:50;17.10;99.90
6114;DHT22;3087;48.392;10.836;2023-09-19T00:28:17;17.20;99.90
6114;DHT22;3087;48.392;10.836;2023-09-19T00:30:44;17.10;99.90
6114;DHT22;3087;48.392;10.836;2023-09-19T00:33:11;17.10;99.90
6114;DHT22;3087;48.392;10.836;2023-09-19T00:35:47;17.10;99.90
6114;DHT22;3087;48.392;10.836;2023-09-19T00:38:13;17.10;99.90
6114;DHT22;3087;48.392;10.836;2023-09-19T00:40:46;17.10;99.90
6114;DHT22;3087;48.392;10.836;2023-09-19T00:43:11;17.10;99.90
6114;DHT22;3087;48.392;10.836;2023-09-19T00:45:39;17.00;99.90
6114;DHT22;3087;48.392;10.836;2023-09-19T00:48:08;17.20;99.90
6114;DHT22;3087;48.392;10.836;2023-09-19T00:50:35;17.00;99.90
6114;DHT22;3087;48.392;10.836;2023-09-19T00:53:02;17.10;99.90
6114;DHT22;3087;48.392;10.836;2023-09-19T00:55:34;17.20;99.90
6114;DHT22;3087;48.392;10.836;2023-09-19T00:58:00;17.10;99.90
6114;DHT22;3087;48.392;10.836;2023-09-19T01:00:26;17.10;99.90
6114;DHT22;3087;48.392;10.836;2023-09-19T01:02:52;17.00;99.90
6114;DHT22;3087;48.392;10.836;2023-09-19T01:05:18;17.10;99.90
6114;DHT22;3087;48.392;10.836;2023-09-19T01:07:44;17.10;99.90
6114;DHT22;3087;48.392;10.836;2023-09-19T01:10:15;17.20;99.90
6114;DHT22;3087;48.392;10.836;2023-09-19T01:12:51;17.20;99.90
6114;DHT22;3087;48.392;10.836;2023-09-19T01:21:29;17.20;99.90
6114;DHT22;3087;48.392;10.836;2023-09-19T01:24:15;17.20;99.90
6114;DHT22;3087;48.392;10.836;2023-09-19T01:27:13;17.30;99.90
6114;DHT22;3087;48.392;10.836;2023-09-19T01:29:46;17.20;99.90
6114;DHT22;3087;48.392;10.836;2023-09-19T01:32:15;17.10;99.90
6114;DHT22;3087;48.392;10.836;2023-09-19T01:34:49;17.10;99.90
6114;DHT22;3087;48.392;10.836;2023-09-19T01:37:17;17.10;99.90
6114;DHT22;3087;48.392;10.836;2023-09-19T01:39:51;17.20;99.90
6114;DHT22;3087;48.392;10.836;2023-09-19T01:42:31;17.10;99.90
6114;DHT22;3087;48.392;10.836;2023-09-19T01:45:11;17.10;99.90
6114;DHT22;3087;48.392;10.836;2023-09-19T01:47:50;17.10;99.90
6114;DHT22;3087;48.392;10.836;2023-09-19T01:53:03;17.00;99.90
6114;DHT22;3087;48.392;10.836;2023-09-19T01:55:30;16.90;99.90
6114;DHT22;3087;48.392;10.836;2023-09-19T01:58:14;16.90;99.90
6114;DHT22;3087;48.392;10.836;2023-09-19T02:00:42;16.90;99.90
6114;DHT22;3087;48.392;10.836;2023-09-19T02:03:11;16.90;99.90
6114;DHT22;3087;48.392;10.836;2023-09-19T02:05:37;16.90;99.90
6114;DHT22;3087;48.392;10.836;2023-09-19T02:08:04;16.90;99.90
6114;DHT22;3087;48.392;10.836;2023-09-19T02:10:30;16.90;99.90
6114;DHT22;3087;48.392;10.836;2023-09-19T02:12:56;17.00;99.90
6114;DHT22;3087;48.392;10.836;2023-09-19T02:15:22;16.90;99.90
6114;DHT22;3087;48.392;10.836;2023-09-19T02:17:48;16.90;99.90
6114;DHT22;3087;48.392;10.836;2023-09-19T02:20:13;16.90;99.90
6114;DHT22;3087;48.392;10.836;2023-09-19T02:22:41;16.90;99.90
6114;DHT22;3087;48.392;10.836;2023-09-19T02:25:07;16.90;99.90
6114;DHT22;3087;48.392;10.836;2023-09-19T02:27:34;16.90;99.90
6114;DHT22;3087;48.392;10.836;2023-09-19T02:29:59;16.90;99.90
6114;DHT22;3087;48.392;10.836;2023-09-19T02:32:29;16.80;99.90
6114;DHT22;3087;48.392;10.836;2023-09-19T02:34:57;16.80;99.90
6114;DHT22;3087;48.392;10.836;2023-09-19T02:37:23;16.70;99.90
6114;DHT22;3087;48.392;10.836;2023-09-19T02:39:49;16.80;99.90
6114;DHT22;3087;48.392;10.836;2023-09-19T02:42:15;16.80;99.90
6114;DHT22;3087;48.392;10.836;2023-09-19T02:44:40;16.80;99.90
6114;DHT22;3087;48.392;10.836;2023-09-19T02:47:06;16.80;99.90
6114;DHT22;3087;48.392;10.836;2023-09-19T02:49:32;16.90;99.90
6114;DHT22;3087;48.392;10.836;2023-09-19T02:51:58;17.00;99.90
6114;DHT22;3087;48.392;10.836;2023-09-19T02:54:26;17.00;99.90
6114;DHT22;3087;48.392;10.836;2023-09-19T02:56:52;17.10;99.90
6114;DHT22;3087;48.392;10.836;2023-09-19T02:59:19;17.10;99.90
6114;DHT22;3087;48.392;10.836;2023-09-19T03:01:45;17.90;99.90
6114;DHT22;3087;48.392;10.836;2023-09-19T03:04:13;17.10;99.90
6114;DHT22;3087;48.392;10.836;2023-09-19T03:06:42;17.10;99.90
6114;DHT22;3087;48.392;10.836;2023-09-19T03:09:09;17.10;99.90
6114;DHT22;3087;48.392;10.836;2023-09-19T03:11:39;17.00;99.90
6114;DHT22;3087;48.392;10.836;2023-09-19T03:14:05;17.00;99.90
6114;DHT22;3087;48.392;10.836;2023-09-19T03:16:31;17.00;99.90
6114;DHT22;3087;48.392;10.836;2023-09-19T03:18:58;16.90;99.90
6114;DHT22;3087;48.392;10.836;2023-09-19T03:21:25;16.80;99.90
6114;DHT22;3087;48.392;10.836;2023-09-19T03:23:51;16.80;99.90
6114;DHT22;3087;48.392;10.836;2023-09-19T03:26:16;16.80;99.90
6114;DHT22;3087;48.392;10.836;2023-09-19T03:28:42;16.70;99.90
6114;DHT22;3087;48.392;10.836;2023-09-19T03:31:08;16.70;99.90
6114;DHT22;3087;48.392;10.836;2023-09-19T03:33:34;16.80;99.90
6114;DHT22;3087;48.392;10.836;2023-09-19T03:36:03;16.90;99.90
6114;DHT22;3087;48.392;10.836;2023-09-19T03:38:33;17.00;99.90
6114;DHT22;3087;48.392;10.836;2023-09-19T03:41:00;17.10;99.90
6114;DHT22;3087;48.392;10.836;2023-09-19T03:43:25;17.00;99.90
6114;DHT22;3087;48.392;10.836;2023-09-19T03:45:51;17.10;99.90
6114;DHT22;3087;48.392;10.836;2023-09-19T03:48:16;17.10;99.90
6114;DHT22;3087;48.392;10.836;2023-09-19T03:50:42;17.10;99.90
6114;DHT22;3087;48.392;10.836;2023-09-19T03:53:09;17.10;99.90
6114;DHT22;3087;48.392;10.836;2023-09-19T03:55:35;17.10;99.90
6114;DHT22;3087;48.392;10.836;2023-09-19T03:58:04;17.10;99.90
6114;DHT22;3087;48.392;10.836;2023-09-19T04:00:30;17.10;99.90
6114;DHT22;3087;48.392;10.836;2023-09-19T04:02:56;17.10;99.90
6114;DHT22;3087;48.392;10.836;2023-09-19T04:05:22;17.10;99.90
6114;DHT22;3087;48.392;10.836;2023-09-19T04:07:48;17.20;99.90
6114;DHT22;3087;48.392;10.836;2023-09-19T04:10:15;17.10;99.90
6114;DHT22;3087;48.392;10.836;2023-09-19T04:12:50;17.10;99.90
6114;DHT22;3087;48.392;10.836;2023-09-19T04:15:17;17.10;99.90
6114;DHT22;3087;48.392;10.836;2023-09-19T04:17:42;17.10;99.90
6114;DHT22;3087;48.392;10.836;2023-09-19T04:20:08;17.10;99.90
6114;DHT22;3087;48.392;10.836;2023-09-19T04:22:36;17.10;99.90
6114;DHT22;3087;48.392;10.836;2023-09-19T04:25:02;17.00;99.90
6114;DHT22;3087;48.392;10.836;2023-09-19T04:27:28;17.00;99.90
6114;DHT22;3087;48.392;10.836;2023-09-19T04:29:54;17.10;99.90
6114;DHT22;3087;48.392;10.836;2023-09-19T04:32:28;17.00;99.90
6114;DHT22;3087;48.392;10.836;2023-09-19T04:34:53;17.10;99.90
6114;DHT22;3087;48.392;10.836;2023-09-19T04:37:19;17.10;99.90
6114;DHT22;3087;48.392;10.836;2023-09-19T04:39:46;17.10;99.90
6114;DHT22;3087;48.392;10.836;2023-09-19T04:42:13;17.30;99.90
6114;DHT22;3087;48.392;10.836;2023-09-19T04:44:39;17.40;99.90
6114;DHT22;3087;48.392;10.836;2023-09-19T04:47:05;17.50;99.90
6114;DHT22;3087;48.392;10.836;2023-09-19T04:49:31;17.50;99.90
6114;DHT22;3087;48.392;10.836;2023-09-19T04:51:57;17.50;99.90
6114;DHT22;3087;48.392;10.836;2023-09-19T04:54:22;17.50;99.90
6114;DHT22;3087;48.392;10.836;2023-09-19T04:56:48;17.50;99.90
6114;DHT22;3087;48.392;10.836;2023-09-19T04:59:14;17.40;99.90
6114;DHT22;3087;48.392;10.836;2023-09-19T05:01:40;17.50;99.90
6114;DHT22;3087;48.392;10.836;2023-09-19T05:04:06;17.50;99.90
6114;DHT22;3087;48.392;10.836;2023-09-19T05:06:31;17.50;99.90
6114;DHT22;3087;48.392;10.836;2023-09-19T05:09:00;17.50;99.90
6114;DHT22;3087;48.392;10.836;2023-09-19T05:11:26;17.30;99.90
6114;DHT22;3087;48.392;10.836;2023-09-19T05:13:52;17.20;99.90
6114;DHT22;3087;48.392;10.836;2023-09-19T05:16:18;17.20;99.90
6114;DHT22;3087;48.392;10.836;2023-09-19T05:18:44;16.80;99.90
6114;DHT22;3087;48.392;10.836;2023-09-19T05:21:10;17.10;99.90
6114;DHT22;3087;48.392;10.836;2023-09-19T05:23:35;17.00;99.90
6114;DHT22;3087;48.392;10.836;2023-09-19T05:26:02;17.00;99.90
6114;DHT22;3087;48.392;10.836;2023-09-19T05:28:29;17.10;99.90
6114;DHT22;3087;48.392;10.836;2023-09-19T05:30:55;17.10;99.90
6114;DHT22;3087;48.392;10.836;2023-09-19T05:33:20;17.00;99.90
6114;DHT22;3087;48.392;10.836;2023-09-19T05:35:48;17.10;99.90
6114;DHT22;3087;48.392;10.836;2023-09-19T05:38:14;17.10;99.90
6114;DHT22;3087;48.392;10.836;2023-09-19T05:40:41;17.20;99.90
6114;DHT22;3087;48.392;10.836;2023-09-19T05:43:08;17.20;99.90
6114;DHT22;3087;48.392;10.836;2023-09-19T05:45:34;17.20;99.90
6114;DHT22;3087;48.392;10.836;2023-09-19T05:48:13;17.20;99.90
6114;DHT22;3087;48.392;10.836;2023-09-19T05:50:40;17.10;99.90
6114;DHT22;3087;48.392;10.836;2023-09-19T05:53:05;17.20;99.90
6114;DHT22;3087;48.392;10.836;2023-09-19T05:55:32;17.20;99.90
6114;DHT22;3087;48.392;10.836;2023-09-19T05:57:58;17.30;99.90
6114;DHT22;3087;48.392;10.836;2023-09-19T06:00:25;17.20;99.90
6114;DHT22;3087;48.392;10.836;2023-09-19T06:02:56;17.30;99.90
6114;DHT22;3087;48.392;10.836;2023-09-19T06:05:23;17.40;99.90
6114;DHT22;3087;48.392;10.836;2023-09-19T06:07:49;17.50;99.90
6114;DHT22;3087;48.392;10.836;2023-09-19T06:10:16;17.60;99.90
6114;DHT22;3087;48.392;10.836;2023-09-19T06:12:43;17.50;99.90
6114;DHT22;3087;48.392;10.836;2023-09-19T06:15:09;17.50;99.90
6114;DHT22;3087;48.392;10.836;2023-09-19T06:17:45;17.50;99.90
6114;DHT22;3087;48.392;10.836;2023-09-19T06:20:11;17.50;99.90
6114;DHT22;3087;48.392;10.836;2023-09-19T06:22:41;17.50;99.90
6114;DHT22;3087;48.392;10.836;2023-09-19T06:25:08;17.50;99.90
6114;DHT22;3087;48.392;10.836;2023-09-19T06:27:36;17.60;99.90
6114;DHT22;3087;48.392;10.836;2023-09-19T06:30:02;17.60;99.90
6114;DHT22;3087;48.392;10.836;2023-09-19T06:32:28;17.80;99.90
6114;DHT22;3087;48.392;10.836;2023-09-19T06:34:54;16.10;99.90
6114;DHT22;3087;48.392;10.836;2023-09-19T06:37:20;17.80;99.90
6114;DHT22;3087;48.392;10.836;2023-09-19T06:39:47;17.80;99.90
6114;DHT22;3087;48.392;10.836;2023-09-19T06:42:15;17.90;99.90
6114;DHT22;3087;48.392;10.836;2023-09-19T06:44:43;17.90;99.90
6114;DHT22;3087;48.392;10.836;2023-09-19T06:47:09;18.00;99.90
6114;DHT22;3087;48.392;10.836;2023-09-19T06:49:36;18.10;99.90
6114;DHT22;3087;48.392;10.836;2023-09-19T06:52:02;18.20;99.90
6114;DHT22;3087;48.392;10.836;2023-09-19T06:54:28;18.30;99.90
6114;DHT22;3087;48.392;10.836;2023-09-19T06:56:59;18.20;99.90
6114;DHT22;3087;48.392;10.836;2023-09-19T06:59:25;18.20;99.90
6114;DHT22;3087;48.392;10.836;2023-09-19T07:01:50;18.20;99.90
6114;DHT22;3087;48.392;10.836;2023-09-19T07:04:16;18.20;99.90
6114;DHT22;3087;48.392;10.836;2023-09-19T07:06:49;18.20;99.90
6114;DHT22;3087;48.392;10.836;2023-09-19T07:09:15;18.30;99.90
6114;DHT22;3087;48.392;10.836;2023-09-19T07:11:41;18.30;99.90
6114;DHT22;3087;48.392;10.836;2023-09-19T07:14:08;18.20;99.90
6114;DHT22;3087;48.392;10.836;2023-09-19T07:16:37;18.20;99.90
6114;DHT22;3087;48.392;10.836;2023-09-19T07:19:04;18.10;99.90
6114;DHT22;3087;48.392;10.836;2023-09-19T07:21:30;18.10;99.90
6114;DHT22;3087;48.392;10.836;2023-09-19T07:23:56;18.20;99.90
6114;DHT22;3087;48.392;10.836;2023-09-19T07:26:21;18.30;99.90
6114;DHT22;3087;48.392;10.836;2023-09-19T07:28:50;18.40;99.90
6114;DHT22;3087;48.392;10.836;2023-09-19T07:31:17;18.60;99.90
6114;DHT22;3087;48.392;10.836;2023-09-19T07:33:43;18.70;99.90
6114;DHT22;3087;48.392;10.836;2023-09-19T07:36:10;18.60;99.90
6114;DHT22;3087;48.392;10.836;2023-09-19T07:38:36;18.60;99.90
6114;DHT22;3087;48.392;10.836;2023-09-19T07:41:02;18.70;99.90
6114;DHT22;3087;48.392;10.836;2023-09-19T07:43:29;18.70;99.90
6114;DHT22;3087;48.392;10.836;2023-09-19T07:45:54;18.80;99.90
6114;DHT22;3087;48.392;10.836;2023-09-19T07:48:20;18.90;99.90
6114;DHT22;3087;48.392;10.836;2023-09-19T07:50:45;18.90;99.90
6114;DHT22;3087;48.392;10.836;2023-09-19T07:53:11;19.00;99.90
6114;DHT22;3087;48.392;10.836;2023-09-19T07:55:39;19.10;99.90
6114;DHT22;3087;48.392;10.836;2023-09-19T07:58:07;19.40;99.90
6114;DHT22;3087;48.392;10.836;2023-09-19T08:00:32;19.40;99.90
6114;DHT22;3087;48.392;10.836;2023-09-19T08:03:00;19.50;99.90
6114;DHT22;3087;48.392;10.836;2023-09-19T08:05:26;19.40;99.90
6114;DHT22;3087;48.392;10.836;2023-09-19T08:07:52;19.50;99.90
6114;DHT22;3087;48.392;10.836;2023-09-19T08:10:19;19.50;99.90
6114;DHT22;3087;48.392;10.836;2023-09-19T08:12:47;19.50;99.90
6114;DHT22;3087;48.392;10.836;2023-09-19T08:15:18;19.60;99.90
6114;DHT22;3087;48.392;10.836;2023-09-19T08:17:48;20.00;99.90
6114;DHT22;3087;48.392;10.836;2023-09-19T08:20:14;20.10;99.90
6114;DHT22;3087;48.392;10.836;2023-09-19T08:22:52;20.40;99.90
6114;DHT22;3087;48.392;10.836;2023-09-19T08:25:20;20.50;99.90
6114;DHT22;3087;48.392;10.836;2023-09-19T08:27:47;20.50;99.90
6114;DHT22;3087;48.392;10.836;2023-09-19T08:30:21;20.50;99.90
6114;DHT22;3087;48.392;10.836;2023-09-19T08:32:59;20.50;99.90
6114;DHT22;3087;48.392;10.836;2023-09-19T08:35:26;20.60;99.90
6114;DHT22;3087;48.392;10.836;2023-09-19T08:37:52;20.50;99.90
6114;DHT22;3087;48.392;10.836;2023-09-19T08:40:18;20.60;99.90
6114;DHT22;3087;48.392;10.836;2023-09-19T08:42:54;20.60;99.90
6114;DHT22;3087;48.392;10.836;2023-09-19T08:45:21;20.70;99.90
6114;DHT22;3087;48.392;10.836;2023-09-19T08:50:39;21.00;99.90
6114;DHT22;3087;48.392;10.836;2023-09-19T08:53:11;21.10;99.90
6114;DHT22;3087;48.392;10.836;2023-09-19T08:55:40;21.00;99.90
6114;DHT22;3087;48.392;10.836;2023-09-19T08:58:10;21.30;99.90
6114;DHT22;3087;48.392;10.836;2023-09-19T09:00:36;21.50;99.90
6114;DHT22;3087;48.392;10.836;2023-09-19T09:03:03;21.50;99.90
6114;DHT22;3087;48.392;10.836;2023-09-19T09:05:32;21.70;99.90
6114;DHT22;3087;48.392;10.836;2023-09-19T09:07:58;21.60;99.90
6114;DHT22;3087;48.392;10.836;2023-09-19T09:10:25;21.60;99.90
6114;DHT22;3087;48.392;10.836;2023-09-19T09:12:53;21.70;99.90
6114;DHT22;3087;48.392;10.836;2023-09-19T09:15:21;21.60;99.90
6114;DHT22;3087;48.392;10.836;2023-09-19T09:17:48;21.70;99.90
6114;DHT22;3087;48.392;10.836;2023-09-19T09:20:19;21.90;99.90
6114;DHT22;3087;48.392;10.836;2023-09-19T09:22:51;22.00;99.90
6114;DHT22;3087;48.392;10.836;2023-09-19T09:25:18;22.10;99.90
6114;DHT22;3087;48.392;10.836;2023-09-19T09:27:58;22.00;99.90
6114;DHT22;3087;48.392;10.836;2023-09-19T09:30:35;22.60;99.90
6114;DHT22;3087;48.392;10.836;2023-09-19T09:33:11;22.80;99.90
6114;DHT22;3087;48.392;10.836;2023-09-19T09:35:53;23.30;99.90
6114;DHT22;3087;48.392;10.836;2023-09-19T09:38:24;23.40;99.90
6114;DHT22;3087;48.392;10.836;2023-09-19T09:40:57;23.20;99.90
6114;DHT22;3087;48.392;10.836;2023-09-19T09:43:37;23.40;99.90
6114;DHT22;3087;48.392;10.836;2023-09-19T09:46:15;23.80;99.90
6114;DHT22;3087;48.392;10.836;2023-09-19T09:48:58;23.70;99.90
6114;DHT22;3087;48.392;10.836;2023-09-19T09:51:42;23.70;99.90
6114;DHT22;3087;48.392;10.836;2023-09-19T09:54:29;23.80;99.90
6114;DHT22;3087;48.392;10.836;2023-09-19T09:57:08;23.40;99.90
6114;DHT22;3087;48.392;10.836;2023-09-19T09:59:52;23.30;99.90
6114;DHT22;3087;48.392;10.836;2023-09-19T10:02:27;23.30;99.90
6114;DHT22;3087;48.392;10.836;2023-09-19T10:07:50;23.40;99.90
6114;DHT22;3087;48.392;10.836;2023-09-19T10:10:35;24.40;99.90
6114;DHT22;3087;48.392;10.836;2023-09-19T10:13:07;25.10;99.90
6114;DHT22;3087;48.392;10.836;2023-09-19T10:15:38;25.90;99.90
6114;DHT22;3087;48.392;10.836;2023-09-19T10:18:07;26.80;99.90
6114;DHT22;3087;48.392;10.836;2023-09-19T10:20:37;27.50;99.90
6114;DHT22;3087;48.392;10.836;2023-09-19T10:23:11;27.70;99.90
6114;DHT22;3087;48.392;10.836;2023-09-19T10:25:39;27.30;99.90
6114;DHT22;3087;48.392;10.836;2023-09-19T10:28:06;26.70;99.90
6114;DHT22;3087;48.392;10.836;2023-09-19T10:30:38;26.60;99.90
6114;DHT22;3087;48.392;10.836;2023-09-19T10:33:09;25.90;99.20
6114;DHT22;3087;48.392;10.836;2023-09-19T10:35:38;25.90;99.90
6114;DHT22;3087;48.392;10.836;2023-09-19T10:38:06;26.40;99.60
6114;DHT22;3087;48.392;10.836;2023-09-19T10:40:35;26.60;99.50
6114;DHT22;3087;48.392;10.836;2023-09-19T10:43:03;26.40;99.30
6114;DHT22;3087;48.392;10.836;2023-09-19T10:45:31;25.90;99.30
6114;DHT22;3087;48.392;10.836;2023-09-19T10:47:58;25.50;99.60
6114;DHT22;3087;48.392;10.836;2023-09-19T10:50:24;25.10;99.70
6114;DHT22;3087;48.392;10.836;2023-09-19T10:52:51;25.30;99.90
6114;DHT22;3087;48.392;10.836;2023-09-19T10:55:25;25.90;99.90
6114;DHT22;3087;48.392;10.836;2023-09-19T10:57:53;26.40;99.90
6114;DHT22;3087;48.392;10.836;2023-09-19T11:00:20;26.30;99.90
6114;DHT22;3087;48.392;10.836;2023-09-19T11:05:40;24.80;99.90
6114;DHT22;3087;48.392;10.836;2023-09-19T11:08:10;24.20;99.90
6114;DHT22;3087;48.392;10.836;2023-09-19T11:10:55;24.00;99.90
6114;DHT22;3087;48.392;10.836;2023-09-19T11:13:31;23.40;99.90
6114;DHT22;3087;48.392;10.836;2023-09-19T11:26:43;21.40;99.90
6114;DHT22;3087;48.392;10.836;2023-09-19T11:29:29;21.20;99.90
6114;DHT22;3087;48.392;10.836;2023-09-19T11:31:59;21.00;99.90
6114;DHT22;3087;48.392;10.836;2023-09-19T11:39:37;20.90;99.90
6114;DHT22;3087;48.392;10.836;2023-09-19T11:42:42;21.20;99.90
6114;DHT22;3087;48.392;10.836;2023-09-19T11:48:15;21.70;99.90
6114;DHT22;3087;48.392;10.836;2023-09-19T11:50:45;22.10;99.90
6114;DHT22;3087;48.392;10.836;2023-09-19T11:53:12;22.60;99.90
6114;DHT22;3087;48.392;10.836;2023-09-19T11:55:40;23.90;99.90
6114;DHT22;3087;48.392;10.836;2023-09-19T11:58:08;24.80;99.90
6114;DHT22;3087;48.392;10.836;2023-09-19T12:00:35;25.80;99.90
6114;DHT22;3087;48.392;10.836;2023-09-19T12:03:09;26.60;99.90
6114;DHT22;3087;48.392;10.836;2023-09-19T12:05:35;27.80;99.90
6114;DHT22;3087;48.392;10.836;2023-09-19T12:08:05;28.50;99.90
6114;DHT22;3087;48.392;10.836;2023-09-19T12:10:45;29.20;99.70
6114;DHT22;3087;48.392;10.836;2023-09-19T12:13:16;29.30;97.50
6114;DHT22;3087;48.392;10.836;2023-09-19T12:15:41;29.40;97.70
6114;DHT22;3087;48.392;10.836;2023-09-19T12:18:25;29.80;97.00
6114;DHT22;3087;48.392;10.836;2023-09-19T12:20:51;29.90;96.50
6114;DHT22;3087;48.392;10.836;2023-09-19T12:23:17;29.50;94.20
6114;DHT22;3087;48.392;10.836;2023-09-19T12:25:43;29.60;94.40
6114;DHT22;3087;48.392;10.836;2023-09-19T12:28:13;29.50;93.10
6114;DHT22;3087;48.392;10.836;2023-09-19T12:30:38;29.90;92.80
6114;DHT22;3087;48.392;10.836;2023-09-19T12:33:18;29.50;92.70
6114;DHT22;3087;48.392;10.836;2023-09-19T12:35:51;29.70;92.30
6114;DHT22;3087;48.392;10.836;2023-09-19T12:38:28;30.20;92.10
6114;DHT22;3087;48.392;10.836;2023-09-19T12:40:55;30.30;91.20
6114;DHT22;3087;48.392;10.836;2023-09-19T12:43:22;30.30;91.00
6114;DHT22;3087;48.392;10.836;2023-09-19T12:45:48;30.10;91.10
6114;DHT22;3087;48.392;10.836;2023-09-19T12:51:09;29.00;91.90
6114;DHT22;3087;48.392;10.836;2023-09-19T12:53:38;28.50;91.10
6114;DHT22;3087;48.392;10.836;2023-09-19T12:56:16;27.80;90.30
6114;DHT22;3087;48.392;10.836;2023-09-19T12:58:53;27.10;92.50
6114;DHT22;3087;48.392;10.836;2023-09-19T13:01:20;26.60;91.40
6114;DHT22;3087;48.392;10.836;2023-09-19T13:06:41;25.80;92.60
6114;DHT22;3087;48.392;10.836;2023-09-19T13:09:12;25.50;92.60
6114;DHT22;3087;48.392;10.836;2023-09-19T13:11:40;26.10;92.60
6114;DHT22;3087;48.392;10.836;2023-09-19T13:17:04;28.20;92.20
6114;DHT22;3087;48.392;10.836;2023-09-19T13:19:42;28.90;91.40
6114;DHT22;3087;48.392;10.836;2023-09-19T13:22:44;29.10;91.10
6114;DHT22;3087;48.392;10.836;2023-09-19T13:25:18;29.70;90.70
6114;DHT22;3087;48.392;10.836;2023-09-19T13:27:55;29.90;90.40
6114;DHT22;3087;48.392;10.836;2023-09-19T13:30:23;30.30;90.70
6114;DHT22;3087;48.392;10.836;2023-09-19T13:32:51;30.80;90.40
6114;DHT22;3087;48.392;10.836;2023-09-19T13:35:18;30.60;88.30
6114;DHT22;3087;48.392;10.836;2023-09-19T13:37:45;30.60;88.20
6114;DHT22;3087;48.392;10.836;2023-09-19T13:40:15;30.90;89.00
6114;DHT22;3087;48.392;10.836;2023-09-19T13:42:41;31.10;88.80
6114;DHT22;3087;48.392;10.836;2023-09-19T13:45:07;31.00;86.60
6114;DHT22;3087;48.392;10.836;2023-09-19T13:47:37;31.40;87.20
6114;DHT22;3087;48.392;10.836;2023-09-19T13:50:04;31.80;87.90
6114;DHT22;3087;48.392;10.836;2023-09-19T13:52:31;31.40;85.70
6114;DHT22;3087;48.392;10.836;2023-09-19T13:54:57;30.60;85.10
6114;DHT22;3087;48.392;10.836;2023-09-19T13:57:23;29.90;88.10
6114;DHT22;3087;48.392;10.836;2023-09-19T13:59:49;29.50;87.10
6114;DHT22;3087;48.392;10.836;2023-09-19T14:02:15;29.00;88.50
6114;DHT22;3087;48.392;10.836;2023-09-19T14:04:43;29.30;89.30
6114;DHT22;3087;48.392;10.836;2023-09-19T14:07:09;29.60;87.30
6114;DHT22;3087;48.392;10.836;2023-09-19T14:09:36;28.70;87.90
6114;DHT22;3087;48.392;10.836;2023-09-19T14:12:02;27.90;90.00
6114;DHT22;3087;48.392;10.836;2023-09-19T14:14:28;27.30;89.90
6114;DHT22;3087;48.392;10.836;2023-09-19T14:16:53;26.70;90.50
6114;DHT22;3087;48.392;10.836;2023-09-19T14:19:19;26.30;91.20
6114;DHT22;3087;48.392;10.836;2023-09-19T14:21:45;26.00;91.20
6114;DHT22;3087;48.392;10.836;2023-09-19T14:24:10;25.60;91.90
6114;DHT22;3087;48.392;10.836;2023-09-19T14:26:37;25.40;92.20
6114;DHT22;3087;48.392;10.836;2023-09-19T14:29:02;25.20;92.60
6114;DHT22;3087;48.392;10.836;2023-09-19T14:31:28;25.00;91.90
6114;DHT22;3087;48.392;10.836;2023-09-19T14:33:55;24.90;92.50
6114;DHT22;3087;48.392;10.836;2023-09-19T14:36:25;25.00;93.00
6114;DHT22;3087;48.392;10.836;2023-09-19T14:38:54;25.00;92.00
6114;DHT22;3087;48.392;10.836;2023-09-19T14:41:20;24.80;92.00
6114;DHT22;3087;48.392;10.836;2023-09-19T14:43:46;24.60;91.90
6114;DHT22;3087;48.392;10.836;2023-09-19T14:46:12;24.50;92.20
6114;DHT22;3087;48.392;10.836;2023-09-19T14:48:38;24.40;92.20
6114;DHT22;3087;48.392;10.836;2023-09-19T14:51:07;24.10;92.40
6114;DHT22;3087;48.392;10.836;2023-09-19T14:53:34;24.00;92.40
6114;DHT22;3087;48.392;10.836;2023-09-19T14:56:04;23.70;93.10
6114;DHT22;3087;48.392;10.836;2023-09-19T14:58:33;24.30;93.10
6114;DHT22;3087;48.392;10.836;2023-09-19T15:01:12;24.40;93.40
6114;DHT22;3087;48.392;10.836;2023-09-19T15:03:40;24.40;93.50
6114;DHT22;3087;48.392;10.836;2023-09-19T15:06:07;24.40;93.70
6114;DHT22;3087;48.392;10.836;2023-09-19T15:08:41;24.60;94.00
6114;DHT22;3087;48.392;10.836;2023-09-19T15:11:11;24.60;93.30
6114;DHT22;3087;48.392;10.836;2023-09-19T15:13:37;24.60;93.10
6114;DHT22;3087;48.392;10.836;2023-09-19T15:16:05;24.70;94.00
6114;DHT22;3087;48.392;10.836;2023-09-19T15:18:35;24.60;93.30
6114;DHT22;3087;48.392;10.836;2023-09-19T15:21:03;24.40;93.60
6114;DHT22;3087;48.392;10.836;2023-09-19T15:23:33;24.30;93.50
6114;DHT22;3087;48.392;10.836;2023-09-19T15:26:03;24.20;93.60
6114;DHT22;3087;48.392;10.836;2023-09-19T15:28:29;24.20;93.70
6114;DHT22;3087;48.392;10.836;2023-09-19T15:31:04;24.20;94.10
6114;DHT22;3087;48.392;10.836;2023-09-19T15:33:30;24.20;94.00
6114;DHT22;3087;48.392;10.836;2023-09-19T15:36:10;24.20;93.90
6114;DHT22;3087;48.392;10.836;2023-09-19T15:39:08;24.20;94.20
6114;DHT22;3087;48.392;10.836;2023-09-19T15:41:38;24.00;93.70
6114;DHT22;3087;48.392;10.836;2023-09-19T15:44:15;23.90;94.20
6114;DHT22;3087;48.392;10.836;2023-09-19T15:46:42;24.00;94.30
6114;DHT22;3087;48.392;10.836;2023-09-19T15:49:08;24.10;94.40
6114;DHT22;3087;48.392;10.836;2023-09-19T15:51:34;24.10;94.40
6114;DHT22;3087;48.392;10.836;2023-09-19T15:54:02;24.10;94.10
6114;DHT22;3087;48.392;10.836;2023-09-19T15:56:33;24.00;94.00
6114;DHT22;3087;48.392;10.836;2023-09-19T15:59:00;23.90;94.20
6114;DHT22;3087;48.392;10.836;2023-09-19T16:01:26;24.10;94.00
6114;DHT22;3087;48.392;10.836;2023-09-19T16:03:53;24.60;93.50
6114;DHT22;3087;48.392;10.836;2023-09-19T16:06:22;25.00;92.70
6114;DHT22;3087;48.392;10.836;2023-09-19T16:08:50;25.20;92.80
6114;DHT22;3087;48.392;10.836;2023-09-19T16:11:17;25.10;93.10
6114;DHT22;3087;48.392;10.836;2023-09-19T16:13:43;26.90;93.60
6114;DHT22;3087;48.392;10.836;2023-09-19T16:16:12;24.90;93.00
6114;DHT22;3087;48.392;10.836;2023-09-19T16:18:39;24.80;93.30
6114;DHT22;3087;48.392;10.836;2023-09-19T16:21:06;24.60;93.50
6114;DHT22;3087;48.392;10.836;2023-09-19T16:23:35;24.60;93.60
6114;DHT22;3087;48.392;10.836;2023-09-19T16:26:02;24.40;93.60
6114;DHT22;3087;48.392;10.836;2023-09-19T16:28:30;24.40;93.90
6114;DHT22;3087;48.392;10.836;2023-09-19T16:30:58;24.40;93.60
6114;DHT22;3087;48.392;10.836;2023-09-19T16:33:25;24.30;93.60
6114;DHT22;3087;48.392;10.836;2023-09-19T16:35:51;24.10;93.10
6114;DHT22;3087;48.392;10.836;2023-09-19T16:38:17;23.80;93.70
6114;DHT22;3087;48.392;10.836;2023-09-19T16:40:57;23.70;93.60